createdAt,value
2022-09-28T00:01:53.642Z,8.93
2022-09-28T00:04:21.025Z,7.13
2022-09-28T00:06:47.982Z,5.27
2022-09-28T00:09:18.044Z,9.23
2022-09-28T00:11:45.208Z,6.28
2022-09-28T00:14:11.872Z,7.25
2022-09-28T00:16:40.875Z,7.95
2022-09-28T00:19:07.857Z,5.20
2022-09-28T00:21:36.208Z,6.57
2022-09-28T00:24:04.788Z,8.30
2022-09-28T00:26:34.089Z,6.68
2022-09-28T00:29:01.961Z,6.35
2022-09-28T00:31:30.187Z,6.87
2022-09-28T00:33:57.378Z,7.50
2022-09-28T00:36:24.686Z,11.52
2022-09-28T00:38:51.220Z,8.80
2022-09-28T00:41:17.977Z,7.55
2022-09-28T00:43:45.898Z,5.80
2022-09-28T00:46:17.048Z,9.13
2022-09-28T00:48:50.087Z,5.45
2022-09-28T00:51:16.993Z,6.47
2022-09-28T00:53:44.261Z,8.05
2022-09-28T00:56:15.789Z,8.50
2022-09-28T00:58:46.753Z,11.80
2022-09-28T01:01:14.095Z,6.88
2022-09-28T01:03:40.975Z,8.30
2022-09-28T01:06:08.089Z,7.65
2022-09-28T01:08:36.024Z,6.73
2022-09-28T01:11:02.581Z,9.60
2022-09-28T01:13:31.818Z,8.45
2022-09-28T01:16:09.002Z,8.90
2022-09-28T01:18:47.194Z,9.40
2022-09-28T01:21:18.070Z,6.93
2022-09-28T01:24:14.342Z,6.80
2022-09-28T01:26:56.400Z,8.07
2022-09-28T01:29:37.489Z,7.13
2022-09-28T01:32:27.744Z,7.18
2022-09-28T01:34:58.636Z,6.00
2022-09-28T01:37:31.080Z,7.60
2022-09-28T01:40:01.848Z,5.95
2022-09-28T01:42:32.973Z,6.00
2022-09-28T01:45:05.753Z,6.05
2022-09-28T01:47:37.514Z,6.30
2022-09-28T01:50:09.678Z,8.10
2022-09-28T01:52:43.954Z,7.40
2022-09-28T01:55:13.379Z,7.70
2022-09-28T01:57:45.461Z,8.20
2022-09-28T02:00:14.549Z,8.80
2022-09-28T02:02:47.262Z,5.60
2022-09-28T02:05:16.871Z,8.23
2022-09-28T02:07:46.749Z,8.63
2022-09-28T02:10:16.381Z,8.48
2022-09-28T02:12:48.421Z,10.27
2022-09-28T02:15:19.973Z,8.73
2022-09-28T02:17:47.477Z,7.38
2022-09-28T02:20:14.453Z,5.30
2022-09-28T02:22:45.593Z,6.20
2022-09-28T02:25:19.982Z,11.03
2022-09-28T02:27:55.709Z,7.85
2022-09-28T02:30:22.296Z,8.05
2022-09-28T02:32:51.373Z,10.48
2022-09-28T02:35:19.891Z,8.98
2022-09-28T02:37:47.360Z,7.20
2022-09-28T02:40:14.882Z,10.93
2022-09-28T02:42:52.017Z,6.43
2022-09-28T02:45:34.016Z,8.35
2022-09-28T02:48:41.256Z,6.60
2022-09-28T02:51:20.357Z,9.50
2022-09-28T02:54:10.441Z,13.32
2022-09-28T02:56:53.865Z,8.07
2022-09-28T02:59:35.702Z,8.10
2022-09-28T03:02:14.514Z,9.65
2022-09-28T03:04:47.328Z,6.00
2022-09-28T03:07:22.745Z,9.20
2022-09-28T03:09:58.724Z,6.93
2022-09-28T03:12:26.712Z,6.57
2022-09-28T03:15:06.620Z,9.60
2022-09-28T03:17:34.481Z,9.30
2022-09-28T03:20:01.433Z,8.32
2022-09-28T03:22:27.972Z,10.93
2022-09-28T03:24:54.520Z,9.18
2022-09-28T03:27:21.044Z,8.35
2022-09-28T03:29:47.576Z,8.87
2022-09-28T03:32:14.130Z,9.90
2022-09-28T03:34:42.030Z,11.15
2022-09-28T03:37:08.567Z,7.60
2022-09-28T03:39:35.114Z,9.65
2022-09-28T03:42:01.654Z,8.17
2022-09-28T03:44:28.217Z,8.70
2022-09-28T03:46:54.730Z,6.70
2022-09-28T03:49:21.285Z,9.63
2022-09-28T03:51:49.155Z,8.10
2022-09-28T03:54:15.718Z,6.07
2022-09-28T03:56:42.233Z,7.93
2022-09-28T03:59:08.821Z,9.43
2022-09-28T04:01:35.385Z,6.57
2022-09-28T04:04:02.056Z,6.75
2022-09-28T04:06:28.780Z,7.73
2022-09-28T04:08:56.842Z,7.50
2022-09-28T04:11:23.360Z,8.18
2022-09-28T04:13:50.093Z,7.68
2022-09-28T04:16:16.830Z,7.88
2022-09-28T04:18:43.357Z,7.80
2022-09-28T04:21:12.032Z,8.77
2022-09-28T04:23:39.529Z,8.75
2022-09-28T04:26:11.564Z,7.00
2022-09-28T04:28:38.092Z,9.02
2022-09-28T04:31:09.354Z,8.30
2022-09-28T04:33:35.900Z,7.93
2022-09-28T04:36:02.409Z,5.97
2022-09-28T04:38:51.385Z,7.00
2022-09-28T04:41:16.821Z,9.48
2022-09-28T04:43:43.492Z,7.57
2022-09-28T04:46:10.514Z,9.32
2022-09-28T04:48:37.549Z,8.25
2022-09-28T04:51:04.189Z,8.48
2022-09-28T04:53:30.836Z,7.68
2022-09-28T04:55:58.558Z,8.33
2022-09-28T04:58:26.977Z,10.40
2022-09-28T05:00:56.755Z,9.27
2022-09-28T05:03:23.396Z,10.55
2022-09-28T05:05:50.039Z,8.90
2022-09-28T05:08:17.032Z,7.53
2022-09-28T05:10:44.116Z,5.85
2022-09-28T05:13:12.192Z,8.10
2022-09-28T05:15:41.694Z,6.95
2022-09-28T05:18:08.712Z,7.57
2022-09-28T05:20:40.376Z,6.47
2022-09-28T05:23:09.875Z,6.45
2022-09-28T05:25:36.426Z,9.10
2022-09-28T05:28:02.985Z,10.15
2022-09-28T05:30:29.535Z,7.38
2022-09-28T05:32:57.445Z,7.03
2022-09-28T05:35:23.990Z,8.30
2022-09-28T05:37:50.545Z,9.27
2022-09-28T05:40:17.270Z,6.78
2022-09-28T05:42:43.801Z,8.10
2022-09-28T05:45:25.683Z,8.27
2022-09-28T05:47:52.219Z,7.22
2022-09-28T05:50:20.158Z,7.60
2022-09-28T05:52:46.782Z,8.50
2022-09-28T05:55:13.433Z,6.70
2022-09-28T05:57:39.961Z,8.50
2022-09-28T06:00:07.617Z,7.43
2022-09-28T06:02:34.183Z,8.25
2022-09-28T06:05:00.746Z,7.07
2022-09-28T06:07:32.101Z,8.05
2022-09-28T06:09:58.622Z,7.53
2022-09-28T06:12:25.190Z,6.68
2022-09-28T06:14:51.731Z,6.78
2022-09-28T06:17:18.394Z,7.00
2022-09-28T06:19:44.953Z,7.40
2022-09-28T06:22:11.592Z,10.17
2022-09-28T06:24:39.478Z,5.28
2022-09-28T06:27:05.997Z,7.38
2022-09-28T06:29:32.574Z,5.15
2022-09-28T06:31:59.124Z,7.55
2022-09-28T06:34:25.638Z,5.13
2022-09-28T06:36:52.162Z,5.38
2022-09-28T06:39:18.785Z,7.90
2022-09-28T06:41:48.341Z,5.50
2022-09-28T06:44:14.979Z,5.57
2022-09-28T06:46:41.615Z,5.30
2022-09-28T06:49:08.601Z,6.30
2022-09-28T06:51:35.406Z,7.82
2022-09-28T06:54:02.022Z,6.22
2022-09-28T06:56:32.683Z,6.20
2022-09-28T06:59:01.034Z,5.67
2022-09-28T07:01:30.564Z,8.63
2022-09-28T07:03:57.193Z,6.65
2022-09-28T07:06:23.928Z,5.80
2022-09-28T07:09:00.234Z,5.40
2022-09-28T07:11:43.490Z,9.50
2022-09-28T07:14:19.307Z,4.07
2022-09-28T07:17:11.248Z,4.75
2022-09-28T07:19:38.796Z,2.80
2022-09-28T07:22:05.741Z,3.10
2022-09-28T07:24:32.352Z,2.70
2022-09-28T07:26:58.866Z,2.90
2022-09-28T07:29:26.768Z,2.90
2022-09-28T07:31:53.545Z,1.83
2022-09-28T07:34:20.144Z,2.67
2022-09-28T07:36:46.672Z,2.40
2022-09-28T07:39:13.173Z,2.75
2022-09-28T07:41:39.720Z,3.20
2022-09-28T07:44:07.004Z,3.08
2022-09-28T07:46:35.451Z,3.53
2022-09-28T07:49:02.168Z,2.37
2022-09-28T07:51:28.701Z,3.70
2022-09-28T07:53:55.220Z,2.65
2022-09-28T07:56:21.858Z,2.33
2022-09-28T07:58:48.768Z,1.63
2022-09-28T08:01:15.769Z,4.37
2022-09-28T08:03:44.084Z,2.50
2022-09-28T08:06:12.032Z,2.88
2022-09-28T08:08:38.996Z,2.80
2022-09-28T08:11:06.547Z,1.15
2022-09-28T08:13:33.093Z,2.93
2022-09-28T08:16:01.436Z,1.65
2022-09-28T08:18:30.580Z,1.45
2022-09-28T08:20:58.499Z,1.63
2022-09-28T08:23:28.997Z,2.00
2022-09-28T08:25:55.613Z,2.63
2022-09-28T08:28:23.871Z,2.38
2022-09-28T08:30:54.497Z,4.10
2022-09-28T08:33:21.190Z,2.67
2022-09-28T08:35:52.086Z,2.53
2022-09-28T08:38:19.998Z,1.50
2022-09-28T08:40:56.878Z,5.43
2022-09-28T08:43:39.354Z,2.65
2022-09-28T08:46:07.145Z,2.50
2022-09-28T08:48:38.376Z,3.95
2022-09-28T08:51:10.357Z,3.93
2022-09-28T08:53:42.650Z,2.25
2022-09-28T08:56:14.255Z,2.47
2022-09-28T08:58:44.187Z,2.30
2022-09-28T09:01:16.921Z,4.45
2022-09-28T09:03:44.285Z,2.87
2022-09-28T09:06:21.776Z,2.28
2022-09-28T09:08:59.804Z,4.90
2022-09-28T09:11:40.533Z,3.92
2022-09-28T09:14:34.941Z,2.88
2022-09-28T09:17:08.596Z,5.30
2022-09-28T09:19:45.356Z,2.10
2022-09-28T09:22:16.821Z,2.95
2022-09-28T09:24:49.572Z,2.53
2022-09-28T09:27:32.421Z,2.70
2022-09-28T09:30:05.530Z,4.27
2022-09-28T09:32:45.513Z,3.08
2022-09-28T09:35:41.782Z,4.05
2022-09-28T09:38:24.254Z,3.67
2022-09-28T09:43:59.767Z,2.83
2022-09-28T09:46:34.703Z,2.90
2022-09-28T09:49:08.363Z,2.53
2022-09-28T09:51:43.825Z,2.45
2022-09-28T09:54:18.530Z,2.97
2022-09-28T09:56:51.412Z,3.57
2022-09-28T09:59:22.117Z,4.97
2022-09-28T10:01:49.265Z,5.88
2022-09-28T10:04:19.650Z,4.18
2022-09-28T10:06:49.424Z,3.78
2022-09-28T10:09:26.311Z,4.03
2022-09-28T10:11:54.241Z,3.00
2022-09-28T10:14:23.588Z,5.22
2022-09-28T10:16:51.774Z,3.08
2022-09-28T10:19:21.785Z,4.20
2022-09-28T10:21:49.653Z,2.47
2022-09-28T10:24:22.587Z,3.22
2022-09-28T10:26:54.447Z,2.83
2022-09-28T10:29:25.489Z,4.07
2022-09-28T10:31:53.873Z,4.88
2022-09-28T10:34:29.232Z,3.17
2022-09-28T10:36:58.107Z,2.83
2022-09-28T10:39:29.189Z,2.80
2022-09-28T10:41:58.456Z,6.60
2022-09-28T10:44:27.017Z,5.63
2022-09-28T10:46:58.439Z,3.70
2022-09-28T10:49:25.858Z,2.90
2022-09-28T10:51:53.792Z,4.85
2022-09-28T10:54:22.011Z,2.42
2022-09-28T10:56:49.950Z,3.88
2022-09-28T10:59:24.330Z,2.67
2022-09-28T11:01:57.858Z,3.03
2022-09-28T11:04:27.930Z,4.85
2022-09-28T11:06:55.483Z,2.92
2022-09-28T11:09:29.936Z,2.55
2022-09-28T11:11:58.709Z,3.57
2022-09-28T11:14:30.020Z,3.75
2022-09-28T11:17:17.567Z,2.65
2022-09-28T11:19:47.693Z,3.08
2022-09-28T11:22:25.208Z,4.13
2022-09-28T11:24:52.299Z,6.47
2022-09-28T11:27:23.236Z,2.85
2022-09-28T11:29:58.459Z,3.58
2022-09-28T11:32:31.442Z,2.63
2022-09-28T11:35:00.501Z,2.38
2022-09-28T11:37:40.416Z,2.73
2022-09-28T11:40:23.583Z,2.83
2022-09-28T11:43:03.303Z,2.83
2022-09-28T11:45:44.388Z,3.97
2022-09-28T11:48:14.578Z,3.85
2022-09-28T11:50:47.460Z,5.30
2022-09-28T11:53:22.795Z,4.70
2022-09-28T11:55:54.910Z,10.93
2022-09-28T11:58:27.577Z,7.68
2022-09-28T12:00:59.416Z,4.20
2022-09-28T12:03:33.765Z,5.50
2022-09-28T12:06:05.000Z,5.40
2022-09-28T12:08:35.048Z,2.92
2022-09-28T12:11:07.609Z,2.15
2022-09-28T12:13:38.906Z,2.92
2022-09-28T12:16:46.842Z,3.73
2022-09-28T12:25:55.309Z,2.45
2022-09-28T12:28:28.985Z,2.08
2022-09-28T12:30:59.154Z,2.63
2022-09-28T12:33:25.810Z,2.20
2022-09-28T12:36:04.920Z,2.03
2022-09-28T12:38:48.264Z,2.38
2022-09-28T12:41:37.538Z,3.05
2022-09-28T12:44:18.571Z,1.77
2022-09-28T12:46:58.217Z,2.72
2022-09-28T12:55:24.237Z,1.58
2022-09-28T12:58:08.665Z,1.83
2022-09-28T13:00:47.119Z,2.03
2022-09-28T13:04:01.107Z,3.58
2022-09-28T13:06:47.122Z,2.45
2022-09-28T13:09:20.009Z,3.20
2022-09-28T13:11:59.256Z,3.20
2022-09-28T13:15:00.348Z,3.22
2022-09-28T13:17:38.859Z,2.80
2022-09-28T13:20:17.391Z,2.58
2022-09-28T13:22:50.790Z,2.70
2022-09-28T13:25:20.771Z,2.43
2022-09-28T13:27:53.111Z,3.17
2022-09-28T13:30:22.103Z,1.92
2022-09-28T13:32:50.151Z,4.13
2022-09-28T13:35:18.403Z,2.60
2022-09-28T13:37:45.153Z,2.07
2022-09-28T13:40:12.160Z,1.92
2022-09-28T13:43:02.640Z,2.63
2022-09-28T13:46:08.484Z,2.35
2022-09-28T13:48:44.803Z,3.13
2022-09-28T13:51:35.829Z,2.17
2022-09-28T13:54:35.292Z,3.35
2022-09-28T13:57:17.640Z,1.75
2022-09-28T13:59:56.755Z,2.60
2022-09-28T14:02:33.468Z,1.35
2022-09-28T14:05:04.664Z,3.63
2022-09-28T14:07:57.247Z,1.60
2022-09-28T14:10:48.339Z,2.75
2022-09-28T14:14:01.675Z,1.63
2022-09-28T14:16:29.664Z,2.47
2022-09-28T14:19:01.617Z,2.30
2022-09-28T14:21:57.640Z,3.03
2022-09-28T14:24:38.031Z,1.67
2022-09-28T14:28:01.331Z,2.83
2022-09-28T14:30:45.006Z,2.03
2022-09-28T14:33:22.270Z,2.90
2022-09-28T14:35:54.033Z,2.42
2022-09-28T14:38:23.013Z,1.58
2022-09-28T14:40:59.478Z,1.98
2022-09-28T14:43:28.242Z,3.78
2022-09-28T14:46:29.513Z,1.73
2022-09-28T14:48:58.843Z,1.58
2022-09-28T14:52:03.110Z,1.40
2022-09-28T14:54:40.569Z,3.45
2022-09-28T14:57:15.699Z,6.40
2022-09-28T14:59:43.769Z,2.83
2022-09-28T15:02:18.960Z,3.88
2022-09-28T15:04:48.988Z,3.33
2022-09-28T15:07:22.322Z,2.95
2022-09-28T15:09:50.955Z,4.47
2022-09-28T15:12:20.254Z,1.63
2022-09-28T15:14:51.491Z,1.90
2022-09-28T15:17:21.254Z,3.42
2022-09-28T15:19:58.120Z,2.45
2022-09-28T15:22:26.308Z,1.80
2022-09-28T15:25:01.995Z,3.73
2022-09-28T15:27:35.371Z,2.80
2022-09-28T15:30:19.068Z,2.75
2022-09-28T15:32:45.612Z,2.15
2022-09-28T15:35:13.436Z,2.53
2022-09-28T15:37:42.295Z,1.50
2022-09-28T15:40:15.356Z,3.22
2022-09-28T15:42:42.375Z,4.10
2022-09-28T15:45:29.399Z,3.83
2022-09-28T15:48:17.108Z,4.05
2022-09-28T15:50:57.790Z,4.83
2022-09-28T15:53:26.427Z,5.25
2022-09-28T15:55:59.759Z,4.68
2022-09-28T15:58:26.327Z,4.65
2022-09-28T16:01:23.091Z,4.55
2022-09-28T16:03:49.685Z,2.10
2022-09-28T16:06:16.601Z,3.55
2022-09-28T16:08:45.421Z,2.97
2022-09-28T16:11:16.651Z,5.97
2022-09-28T16:13:55.513Z,4.03
2022-09-28T16:16:26.040Z,3.67
2022-09-28T16:18:52.704Z,2.92
2022-09-28T16:21:45.215Z,3.33
2022-09-28T16:24:26.202Z,2.63
2022-09-28T16:26:58.537Z,2.58
2022-09-28T16:29:32.090Z,2.53
2022-09-28T16:32:35.048Z,2.83
2022-09-28T16:35:16.698Z,3.55
2022-09-28T16:37:43.288Z,4.95
2022-09-28T16:40:10.329Z,3.58
2022-09-28T16:42:37.924Z,4.17
2022-09-28T16:45:05.240Z,3.97
2022-09-28T16:47:34.160Z,2.67
2022-09-28T16:50:00.987Z,4.85
2022-09-28T16:52:27.626Z,3.17
2022-09-28T16:54:54.304Z,3.17
2022-09-28T16:57:20.864Z,2.78
2022-09-28T16:59:47.424Z,3.28
2022-09-28T17:02:35.282Z,3.97
2022-09-28T17:05:05.383Z,5.07
2022-09-28T17:07:31.904Z,6.10
2022-09-28T17:09:58.431Z,9.27
2022-09-28T17:12:24.984Z,9.90
2022-09-28T17:14:51.507Z,10.65
2022-09-28T17:17:18.125Z,9.80
2022-09-28T17:19:44.733Z,7.23
2022-09-28T17:22:12.910Z,7.28
2022-09-28T17:24:39.705Z,3.85
2022-09-28T17:27:06.334Z,3.08
2022-09-28T17:29:33.095Z,3.47
2022-09-28T17:31:59.598Z,3.20
2022-09-28T17:34:26.908Z,3.97
2022-09-28T17:36:53.486Z,4.00
2022-09-28T17:39:21.429Z,5.63
2022-09-28T17:41:47.938Z,7.13
2022-09-28T17:44:14.551Z,4.87
2022-09-28T17:46:44.376Z,2.60
2022-09-28T17:49:11.661Z,2.75
2022-09-28T17:51:38.414Z,5.32
2022-09-28T17:54:06.877Z,2.97
2022-09-28T17:56:35.716Z,3.97
2022-09-28T17:59:04.525Z,2.47
2022-09-28T18:01:31.837Z,4.43
2022-09-28T18:03:59.559Z,5.18
2022-09-28T18:06:26.090Z,2.53
2022-09-28T18:08:52.660Z,4.00
2022-09-28T18:11:19.215Z,5.50
2022-09-28T18:13:47.117Z,3.53
2022-09-28T18:16:14.690Z,3.22
2022-09-28T18:18:41.411Z,4.10
2022-09-28T18:21:08.008Z,4.90
2022-09-28T18:23:35.582Z,2.45
2022-09-28T18:26:02.264Z,4.38
2022-09-28T18:28:28.804Z,2.75
2022-09-28T18:30:56.773Z,5.20
2022-09-28T18:33:23.375Z,3.77
2022-09-28T18:35:51.258Z,3.45
2022-09-28T18:38:18.454Z,7.60
2022-09-28T18:40:45.276Z,4.63
2022-09-28T18:43:12.000Z,4.90
2022-09-28T18:45:39.139Z,5.43
2022-09-28T18:48:07.095Z,5.70
2022-09-28T18:50:33.616Z,9.82
2022-09-28T18:53:00.161Z,5.65
2022-09-28T18:55:26.777Z,7.43
2022-09-28T18:57:53.356Z,6.23
2022-09-28T19:00:20.159Z,6.60
2022-09-28T19:02:46.841Z,7.47
2022-09-28T19:05:14.853Z,8.70
2022-09-28T19:07:41.354Z,10.45
2022-09-28T19:10:08.625Z,9.63
2022-09-28T19:12:35.141Z,11.77
2022-09-28T19:15:01.635Z,15.23
2022-09-28T19:17:28.161Z,8.98
2022-09-28T19:19:54.807Z,8.88
2022-09-28T19:22:22.683Z,9.97
2022-09-28T19:24:49.198Z,9.95
2022-09-28T19:27:15.778Z,9.43
2022-09-28T19:29:42.348Z,8.32
2022-09-28T19:32:08.890Z,8.65
2022-09-28T19:34:35.402Z,10.27
2022-09-28T19:37:01.902Z,8.00
2022-09-28T19:39:30.110Z,7.50
2022-09-28T19:41:56.712Z,7.68
2022-09-28T19:44:25.785Z,9.05
2022-09-28T19:46:53.447Z,10.40
2022-09-28T19:49:20.405Z,9.57
2022-09-28T19:52:11.005Z,9.73
2022-09-28T19:54:36.806Z,7.35
2022-09-28T19:57:03.955Z,7.72
2022-09-28T19:59:30.481Z,6.37
2022-09-28T20:01:57.079Z,7.82
2022-09-28T20:04:23.667Z,10.07
2022-09-28T20:06:50.294Z,9.25
2022-09-28T20:09:16.888Z,10.55
2022-09-28T20:11:44.999Z,8.73
2022-09-28T20:14:13.354Z,9.00
2022-09-28T20:16:39.875Z,7.63
2022-09-28T20:19:06.433Z,9.25
2022-09-28T20:21:33.460Z,9.38
2022-09-28T20:24:00.215Z,8.43
2022-09-28T20:26:27.328Z,9.60
2022-09-28T20:28:55.284Z,9.30
2022-09-28T20:31:23.517Z,8.68
2022-09-28T20:33:50.576Z,8.63
2022-09-28T20:36:19.131Z,7.97
2022-09-28T20:38:47.733Z,9.60
2022-09-28T20:41:15.986Z,9.40
2022-09-28T20:43:42.510Z,9.15
2022-09-28T20:46:10.993Z,10.27
2022-09-28T20:48:37.578Z,7.77
2022-09-28T20:51:06.115Z,8.63
2022-09-28T20:53:33.198Z,10.75
2022-09-28T20:56:00.986Z,8.23
2022-09-28T20:58:28.004Z,6.97
2022-09-28T21:01:02.610Z,7.37
2022-09-28T21:03:30.539Z,7.70
2022-09-28T21:05:57.068Z,7.13
2022-09-28T21:08:23.621Z,8.40
2022-09-28T21:10:50.934Z,8.35
2022-09-28T21:13:17.460Z,8.67
2022-09-28T21:15:44.031Z,10.48
2022-09-28T21:18:10.607Z,7.43
2022-09-28T21:20:44.096Z,9.75
2022-09-28T21:23:10.591Z,9.13
2022-09-28T21:25:37.277Z,9.73
2022-09-28T21:28:03.783Z,9.40
2022-09-28T21:30:30.325Z,15.52
2022-09-28T21:32:56.881Z,7.97
2022-09-28T21:35:23.450Z,9.55
2022-09-28T21:37:51.368Z,8.60
2022-09-28T21:40:17.954Z,8.75
2022-09-28T21:42:44.523Z,13.50
2022-09-28T21:45:11.056Z,10.60
2022-09-28T21:47:37.576Z,7.93
2022-09-28T21:50:04.545Z,9.93
2022-09-28T21:52:31.071Z,14.65
2022-09-28T21:54:58.888Z,14.27
2022-09-28T21:57:25.467Z,8.52
2022-09-28T21:59:51.993Z,10.63
2022-09-28T22:02:18.698Z,10.07
2022-09-28T22:04:45.248Z,11.88
2022-09-28T22:07:11.750Z,9.00
2022-09-28T22:09:38.301Z,14.80
2022-09-28T22:12:06.341Z,10.45
2022-09-28T22:14:32.892Z,9.83
2022-09-28T22:16:59.383Z,10.32
2022-09-28T22:19:25.842Z,10.27
2022-09-28T22:21:52.368Z,10.48
2022-09-28T22:24:18.970Z,9.30
2022-09-28T22:26:45.608Z,10.10
2022-09-28T22:29:13.488Z,9.90
2022-09-28T22:31:41.165Z,10.15
2022-09-28T22:34:08.748Z,10.88
2022-09-28T22:36:35.597Z,9.35
2022-09-28T22:39:02.435Z,11.47
2022-09-28T22:41:29.030Z,9.70
2022-09-28T22:43:55.786Z,10.23
2022-09-28T22:46:25.108Z,10.60
2022-09-28T22:48:53.319Z,9.50
2022-09-28T22:51:21.080Z,12.20
2022-09-28T22:53:47.727Z,11.23
2022-09-28T22:56:18.698Z,11.48
2022-09-28T22:58:46.485Z,10.55
2022-09-28T23:01:14.755Z,9.80
2022-09-28T23:03:43.051Z,12.57
2022-09-28T23:06:10.837Z,10.75
2022-09-28T23:08:37.526Z,9.48
2022-09-28T23:11:05.057Z,12.95
2022-09-28T23:13:31.618Z,8.68
2022-09-28T23:15:59.740Z,8.87
2022-09-28T23:18:28.811Z,11.40
2022-09-28T23:20:58.754Z,9.25
2022-09-28T23:23:25.777Z,10.85
2022-09-28T23:25:52.838Z,8.98
2022-09-28T23:28:20.907Z,8.77
2022-09-28T23:30:48.111Z,9.93
2022-09-28T23:33:15.763Z,11.57
2022-09-28T23:35:42.558Z,8.93
2022-09-28T23:38:12.253Z,9.75
2022-09-28T23:40:38.891Z,12.57
2022-09-28T23:43:05.496Z,10.98
2022-09-28T23:45:32.135Z,10.10
2022-09-28T23:47:58.711Z,9.93
2022-09-28T23:50:25.423Z,9.95
2022-09-28T23:52:52.007Z,10.80
2022-09-28T23:55:19.942Z,13.60
2022-09-28T23:57:46.635Z,11.88
